sensor_id;sensor_type;location;lat;lon;timestamp;P1;durP1;ratioP1;P2;durP2;ratioP2
47403;SDS011;33157;51.508;4.288;2024-03-06T00:01:23;23.15;;;15.45;;
47403;SDS011;33157;51.508;4.288;2024-03-06T00:06:23;24.05;;;16.38;;
47403;SDS011;33157;51.508;4.288;2024-03-06T00:11:24;26.25;;;18.45;;
47403;SDS011;33157;51.508;4.288;2024-03-06T00:16:25;26.10;;;17.58;;
47403;SDS011;33157;51.508;4.288;2024-03-06T00:21:27;27.70;;;16.85;;
47403;SDS011;33157;51.508;4.288;2024-03-06T00:26:28;25.93;;;16.93;;
47403;SDS011;33157;51.508;4.288;2024-03-06T00:31:29;25.17;;;17.85;;
47403;SDS011;33157;51.508;4.288;2024-03-06T00:36:29;23.15;;;15.95;;
47403;SDS011;33157;51.508;4.288;2024-03-06T00:41:30;24.83;;;17.13;;
47403;SDS011;33157;51.508;4.288;2024-03-06T00:46:31;24.50;;;16.50;;
47403;SDS011;33157;51.508;4.288;2024-03-06T00:51:31;21.52;;;14.85;;
47403;SDS011;33157;51.508;4.288;2024-03-06T00:56:39;22.90;;;15.48;;
47403;SDS011;33157;51.508;4.288;2024-03-06T01:01:39;22.13;;;15.00;;
47403;SDS011;33157;51.508;4.288;2024-03-06T01:06:39;24.30;;;15.63;;
47403;SDS011;33157;51.508;4.288;2024-03-06T01:11:40;21.83;;;14.75;;
47403;SDS011;33157;51.508;4.288;2024-03-06T01:16:40;21.52;;;13.90;;
47403;SDS011;33157;51.508;4.288;2024-03-06T01:21:41;23.55;;;14.57;;
47403;SDS011;33157;51.508;4.288;2024-03-06T01:26:41;21.27;;;14.32;;
47403;SDS011;33157;51.508;4.288;2024-03-06T01:31:42;26.52;;;17.60;;
47403;SDS011;33157;51.508;4.288;2024-03-06T01:36:42;26.48;;;18.30;;
47403;SDS011;33157;51.508;4.288;2024-03-06T01:41:46;25.95;;;17.77;;
47403;SDS011;33157;51.508;4.288;2024-03-06T01:46:47;24.83;;;17.80;;
47403;SDS011;33157;51.508;4.288;2024-03-06T01:51:54;29.05;;;19.00;;
47403;SDS011;33157;51.508;4.288;2024-03-06T01:56:56;30.20;;;18.92;;
47403;SDS011;33157;51.508;4.288;2024-03-06T02:02:00;28.85;;;18.33;;
47403;SDS011;33157;51.508;4.288;2024-03-06T02:07:01;26.37;;;17.40;;
47403;SDS011;33157;51.508;4.288;2024-03-06T02:12:02;25.15;;;17.48;;
47403;SDS011;33157;51.508;4.288;2024-03-06T02:17:03;25.85;;;17.77;;
47403;SDS011;33157;51.508;4.288;2024-03-06T02:22:03;27.55;;;18.33;;
47403;SDS011;33157;51.508;4.288;2024-03-06T02:27:04;23.98;;;16.67;;
47403;SDS011;33157;51.508;4.288;2024-03-06T02:32:05;31.07;;;17.63;;
47403;SDS011;33157;51.508;4.288;2024-03-06T02:37:06;28.90;;;19.63;;
47403;SDS011;33157;51.508;4.288;2024-03-06T02:42:06;28.75;;;18.90;;
47403;SDS011;33157;51.508;4.288;2024-03-06T02:47:07;30.73;;;18.95;;
47403;SDS011;33157;51.508;4.288;2024-03-06T02:52:07;28.65;;;18.20;;
47403;SDS011;33157;51.508;4.288;2024-03-06T02:57:08;26.35;;;17.65;;
47403;SDS011;33157;51.508;4.288;2024-03-06T03:02:08;26.48;;;17.30;;
47403;SDS011;33157;51.508;4.288;2024-03-06T03:07:09;28.27;;;18.30;;
47403;SDS011;33157;51.508;4.288;2024-03-06T03:12:10;29.13;;;19.83;;
47403;SDS011;33157;51.508;4.288;2024-03-06T03:17:11;28.00;;;18.38;;
47403;SDS011;33157;51.508;4.288;2024-03-06T03:22:12;28.80;;;19.67;;
47403;SDS011;33157;51.508;4.288;2024-03-06T03:27:13;27.15;;;19.02;;
47403;SDS011;33157;51.508;4.288;2024-03-06T03:32:13;30.92;;;20.08;;
47403;SDS011;33157;51.508;4.288;2024-03-06T03:37:16;28.52;;;19.42;;
47403;SDS011;33157;51.508;4.288;2024-03-06T03:42:16;29.33;;;20.02;;
47403;SDS011;33157;51.508;4.288;2024-03-06T03:47:17;30.90;;;19.52;;
47403;SDS011;33157;51.508;4.288;2024-03-06T03:52:20;31.98;;;20.73;;
47403;SDS011;33157;51.508;4.288;2024-03-06T03:57:21;26.10;;;19.95;;
47403;SDS011;33157;51.508;4.288;2024-03-06T04:02:22;31.17;;;21.67;;
47403;SDS011;33157;51.508;4.288;2024-03-06T04:07:22;28.90;;;20.65;;
47403;SDS011;33157;51.508;4.288;2024-03-06T04:12:22;29.05;;;19.45;;
47403;SDS011;33157;51.508;4.288;2024-03-06T04:17:23;28.88;;;19.75;;
47403;SDS011;33157;51.508;4.288;2024-03-06T04:22:25;30.48;;;20.98;;
47403;SDS011;33157;51.508;4.288;2024-03-06T04:27:26;24.85;;;18.48;;
47403;SDS011;33157;51.508;4.288;2024-03-06T04:32:27;29.63;;;19.85;;
47403;SDS011;33157;51.508;4.288;2024-03-06T04:37:27;27.45;;;19.85;;
47403;SDS011;33157;51.508;4.288;2024-03-06T04:42:29;27.70;;;20.00;;
47403;SDS011;33157;51.508;4.288;2024-03-06T04:47:29;30.23;;;20.42;;
47403;SDS011;33157;51.508;4.288;2024-03-06T04:52:30;35.50;;;21.08;;
47403;SDS011;33157;51.508;4.288;2024-03-06T04:57:30;26.77;;;19.55;;
47403;SDS011;33157;51.508;4.288;2024-03-06T05:02:31;27.02;;;19.63;;
47403;SDS011;33157;51.508;4.288;2024-03-06T05:07:34;28.73;;;20.20;;
47403;SDS011;33157;51.508;4.288;2024-03-06T05:12:34;29.73;;;21.08;;
47403;SDS011;33157;51.508;4.288;2024-03-06T05:17:35;28.17;;;21.48;;
47403;SDS011;33157;51.508;4.288;2024-03-06T05:22:35;29.80;;;20.25;;
47403;SDS011;33157;51.508;4.288;2024-03-06T05:27:36;28.65;;;19.92;;
47403;SDS011;33157;51.508;4.288;2024-03-06T05:32:36;26.15;;;19.05;;
47403;SDS011;33157;51.508;4.288;2024-03-06T05:37:37;28.02;;;19.35;;
47403;SDS011;33157;51.508;4.288;2024-03-06T05:42:38;29.35;;;18.92;;
47403;SDS011;33157;51.508;4.288;2024-03-06T05:47:38;27.33;;;20.77;;
47403;SDS011;33157;51.508;4.288;2024-03-06T05:52:39;30.55;;;21.52;;
47403;SDS011;33157;51.508;4.288;2024-03-06T05:57:39;27.40;;;19.75;;
47403;SDS011;33157;51.508;4.288;2024-03-06T06:02:45;29.27;;;20.55;;
47403;SDS011;33157;51.508;4.288;2024-03-06T06:07:46;28.55;;;20.13;;
47403;SDS011;33157;51.508;4.288;2024-03-06T06:12:46;29.17;;;19.45;;
47403;SDS011;33157;51.508;4.288;2024-03-06T06:17:47;33.13;;;21.75;;
47403;SDS011;33157;51.508;4.288;2024-03-06T06:22:47;28.83;;;19.85;;
47403;SDS011;33157;51.508;4.288;2024-03-06T06:27:48;34.33;;;19.80;;
47403;SDS011;33157;51.508;4.288;2024-03-06T06:32:49;31.92;;;22.42;;
47403;SDS011;33157;51.508;4.288;2024-03-06T06:37:49;28.48;;;20.10;;
47403;SDS011;33157;51.508;4.288;2024-03-06T06:42:50;30.95;;;20.13;;
47403;SDS011;33157;51.508;4.288;2024-03-06T06:47:51;30.38;;;20.35;;
47403;SDS011;33157;51.508;4.288;2024-03-06T06:52:52;28.33;;;20.17;;
47403;SDS011;33157;51.508;4.288;2024-03-06T06:57:52;35.60;;;22.02;;
47403;SDS011;33157;51.508;4.288;2024-03-06T07:02:53;32.92;;;21.65;;
47403;SDS011;33157;51.508;4.288;2024-03-06T07:07:54;30.95;;;21.45;;
47403;SDS011;33157;51.508;4.288;2024-03-06T07:12:54;30.38;;;20.55;;
47403;SDS011;33157;51.508;4.288;2024-03-06T07:17:54;29.27;;;20.60;;
47403;SDS011;33157;51.508;4.288;2024-03-06T07:22:55;36.60;;;21.02;;
47403;SDS011;33157;51.508;4.288;2024-03-06T07:27:55;37.60;;;22.15;;
47403;SDS011;33157;51.508;4.288;2024-03-06T07:32:55;33.88;;;21.88;;
47403;SDS011;33157;51.508;4.288;2024-03-06T07:37:57;36.23;;;21.63;;
47403;SDS011;33157;51.508;4.288;2024-03-06T07:42:57;27.13;;;19.92;;
47403;SDS011;33157;51.508;4.288;2024-03-06T07:47:59;42.50;;;30.88;;
47403;SDS011;33157;51.508;4.288;2024-03-06T07:53:00;37.28;;;23.60;;
47403;SDS011;33157;51.508;4.288;2024-03-06T07:58:00;27.60;;;20.15;;
47403;SDS011;33157;51.508;4.288;2024-03-06T08:03:00;34.25;;;20.83;;
47403;SDS011;33157;51.508;4.288;2024-03-06T08:08:01;26.65;;;19.27;;
47403;SDS011;33157;51.508;4.288;2024-03-06T08:13:04;35.25;;;19.48;;
47403;SDS011;33157;51.508;4.288;2024-03-06T08:18:04;28.75;;;19.77;;
47403;SDS011;33157;51.508;4.288;2024-03-06T08:23:05;28.90;;;20.60;;
47403;SDS011;33157;51.508;4.288;2024-03-06T08:28:05;26.83;;;19.75;;
47403;SDS011;33157;51.508;4.288;2024-03-06T08:33:06;30.20;;;19.50;;
47403;SDS011;33157;51.508;4.288;2024-03-06T08:38:06;32.92;;;20.55;;
47403;SDS011;33157;51.508;4.288;2024-03-06T08:43:07;28.90;;;19.60;;
47403;SDS011;33157;51.508;4.288;2024-03-06T08:48:09;27.40;;;17.98;;
47403;SDS011;33157;51.508;4.288;2024-03-06T08:53:09;29.17;;;17.67;;
47403;SDS011;33157;51.508;4.288;2024-03-06T08:58:09;22.75;;;16.67;;
47403;SDS011;33157;51.508;4.288;2024-03-06T09:03:10;22.35;;;16.10;;
47403;SDS011;33157;51.508;4.288;2024-03-06T09:08:10;21.75;;;14.75;;
47403;SDS011;33157;51.508;4.288;2024-03-06T09:13:12;18.20;;;11.55;;
47403;SDS011;33157;51.508;4.288;2024-03-06T09:18:12;15.88;;;11.25;;
47403;SDS011;33157;51.508;4.288;2024-03-06T09:23:13;15.80;;;10.77;;
47403;SDS011;33157;51.508;4.288;2024-03-06T09:33:15;18.20;;;10.68;;
47403;SDS011;33157;51.508;4.288;2024-03-06T09:38:16;17.63;;;10.87;;
47403;SDS011;33157;51.508;4.288;2024-03-06T09:43:17;17.58;;;11.32;;
47403;SDS011;33157;51.508;4.288;2024-03-06T09:48:20;17.13;;;10.57;;
47403;SDS011;33157;51.508;4.288;2024-03-06T09:53:21;19.88;;;10.80;;
47403;SDS011;33157;51.508;4.288;2024-03-06T09:58:23;20.47;;;11.03;;
47403;SDS011;33157;51.508;4.288;2024-03-06T10:03:24;17.50;;;10.50;;
47403;SDS011;33157;51.508;4.288;2024-03-06T10:08:24;16.55;;;9.88;;
47403;SDS011;33157;51.508;4.288;2024-03-06T10:13:26;17.65;;;10.40;;
47403;SDS011;33157;51.508;4.288;2024-03-06T10:18:28;15.43;;;10.53;;
47403;SDS011;33157;51.508;4.288;2024-03-06T10:23:29;22.00;;;10.25;;
47403;SDS011;33157;51.508;4.288;2024-03-06T10:28:29;16.55;;;10.02;;
47403;SDS011;33157;51.508;4.288;2024-03-06T10:33:32;13.98;;;8.85;;
47403;SDS011;33157;51.508;4.288;2024-03-06T10:38:34;15.88;;;9.25;;
47403;SDS011;33157;51.508;4.288;2024-03-06T10:43:36;15.30;;;8.90;;
47403;SDS011;33157;51.508;4.288;2024-03-06T10:48:38;17.90;;;9.98;;
47403;SDS011;33157;51.508;4.288;2024-03-06T10:53:42;13.55;;;10.23;;
47403;SDS011;33157;51.508;4.288;2024-03-06T10:58:43;15.27;;;11.48;;
47403;SDS011;33157;51.508;4.288;2024-03-06T11:03:44;14.50;;;9.60;;
47403;SDS011;33157;51.508;4.288;2024-03-06T11:08:44;16.65;;;10.00;;
47403;SDS011;33157;51.508;4.288;2024-03-06T11:13:45;17.35;;;11.20;;
47403;SDS011;33157;51.508;4.288;2024-03-06T11:18:45;18.13;;;10.73;;
47403;SDS011;33157;51.508;4.288;2024-03-06T11:29:17;19.92;;;11.93;;
47403;SDS011;33157;51.508;4.288;2024-03-06T11:39:19;23.33;;;13.75;;
47403;SDS011;33157;51.508;4.288;2024-03-06T11:44:20;19.65;;;10.45;;
47403;SDS011;33157;51.508;4.288;2024-03-06T11:49:23;20.98;;;10.95;;
47403;SDS011;33157;51.508;4.288;2024-03-06T11:54:25;18.35;;;9.55;;
47403;SDS011;33157;51.508;4.288;2024-03-06T11:59:34;12.18;;;7.47;;
47403;SDS011;33157;51.508;4.288;2024-03-06T12:04:35;13.90;;;8.13;;
47403;SDS011;33157;51.508;4.288;2024-03-06T12:14:38;15.30;;;9.38;;
47403;SDS011;33157;51.508;4.288;2024-03-06T12:19:41;14.07;;;7.70;;
47403;SDS011;33157;51.508;4.288;2024-03-06T12:24:42;13.13;;;7.63;;
47403;SDS011;33157;51.508;4.288;2024-03-06T12:29:43;15.25;;;9.00;;
47403;SDS011;33157;51.508;4.288;2024-03-06T12:34:43;10.15;;;6.70;;
47403;SDS011;33157;51.508;4.288;2024-03-06T12:39:45;9.40;;;5.70;;
47403;SDS011;33157;51.508;4.288;2024-03-06T12:44:45;12.90;;;7.93;;
47403;SDS011;33157;51.508;4.288;2024-03-06T12:49:46;14.73;;;9.27;;
47403;SDS011;33157;51.508;4.288;2024-03-06T12:54:46;13.82;;;9.65;;
47403;SDS011;33157;51.508;4.288;2024-03-06T12:59:47;15.55;;;8.70;;
47403;SDS011;33157;51.508;4.288;2024-03-06T13:04:48;11.65;;;8.38;;
47403;SDS011;33157;51.508;4.288;2024-03-06T13:09:48;12.65;;;7.60;;
47403;SDS011;33157;51.508;4.288;2024-03-06T13:14:49;12.98;;;7.43;;
47403;SDS011;33157;51.508;4.288;2024-03-06T13:19:49;14.52;;;8.65;;
47403;SDS011;33157;51.508;4.288;2024-03-06T13:24:50;11.18;;;6.75;;
47403;SDS011;33157;51.508;4.288;2024-03-06T13:29:52;11.68;;;5.90;;
47403;SDS011;33157;51.508;4.288;2024-03-06T13:34:53;10.85;;;6.72;;
47403;SDS011;33157;51.508;4.288;2024-03-06T13:39:53;13.27;;;7.10;;
47403;SDS011;33157;51.508;4.288;2024-03-06T13:44:58;13.05;;;7.05;;
47403;SDS011;33157;51.508;4.288;2024-03-06T13:49:59;9.57;;;5.93;;
47403;SDS011;33157;51.508;4.288;2024-03-06T13:54:59;8.40;;;5.93;;
47403;SDS011;33157;51.508;4.288;2024-03-06T14:00:03;13.13;;;9.15;;
47403;SDS011;33157;51.508;4.288;2024-03-06T14:05:05;20.42;;;10.93;;
47403;SDS011;33157;51.508;4.288;2024-03-06T14:10:07;28.23;;;17.03;;
47403;SDS011;33157;51.508;4.288;2024-03-06T14:15:10;17.98;;;13.73;;
47403;SDS011;33157;51.508;4.288;2024-03-06T14:20:12;19.60;;;13.73;;
47403;SDS011;33157;51.508;4.288;2024-03-06T14:25:13;17.35;;;11.25;;
47403;SDS011;33157;51.508;4.288;2024-03-06T14:30:14;19.47;;;13.47;;
47403;SDS011;33157;51.508;4.288;2024-03-06T14:35:15;19.73;;;14.82;;
47403;SDS011;33157;51.508;4.288;2024-03-06T14:40:15;23.52;;;15.57;;
47403;SDS011;33157;51.508;4.288;2024-03-06T14:45:16;21.30;;;15.23;;
47403;SDS011;33157;51.508;4.288;2024-03-06T14:50:16;24.23;;;16.00;;
47403;SDS011;33157;51.508;4.288;2024-03-06T14:55:18;24.65;;;14.38;;
47403;SDS011;33157;51.508;4.288;2024-03-06T15:00:19;21.47;;;14.10;;
47403;SDS011;33157;51.508;4.288;2024-03-06T15:10:22;17.67;;;11.73;;
47403;SDS011;33157;51.508;4.288;2024-03-06T15:15:22;18.83;;;13.05;;
47403;SDS011;33157;51.508;4.288;2024-03-06T15:20:23;15.70;;;10.95;;
47403;SDS011;33157;51.508;4.288;2024-03-06T15:25:23;15.43;;;10.30;;
47403;SDS011;33157;51.508;4.288;2024-03-06T15:30:24;16.37;;;11.07;;
47403;SDS011;33157;51.508;4.288;2024-03-06T15:35:24;13.90;;;9.88;;
47403;SDS011;33157;51.508;4.288;2024-03-06T15:40:25;15.10;;;10.38;;
47403;SDS011;33157;51.508;4.288;2024-03-06T15:45:26;14.90;;;10.30;;
47403;SDS011;33157;51.508;4.288;2024-03-06T15:50:27;13.60;;;8.98;;
47403;SDS011;33157;51.508;4.288;2024-03-06T15:55:27;14.52;;;9.15;;
47403;SDS011;33157;51.508;4.288;2024-03-06T16:00:28;11.25;;;8.13;;
47403;SDS011;33157;51.508;4.288;2024-03-06T16:05:29;11.75;;;8.07;;
47403;SDS011;33157;51.508;4.288;2024-03-06T16:10:30;13.35;;;8.68;;
47403;SDS011;33157;51.508;4.288;2024-03-06T16:15:34;15.43;;;9.50;;
47403;SDS011;33157;51.508;4.288;2024-03-06T16:20:34;18.23;;;10.25;;
47403;SDS011;33157;51.508;4.288;2024-03-06T16:25:35;15.52;;;11.07;;
47403;SDS011;33157;51.508;4.288;2024-03-06T16:30:35;17.15;;;11.45;;
47403;SDS011;33157;51.508;4.288;2024-03-06T16:35:36;18.00;;;12.90;;
47403;SDS011;33157;51.508;4.288;2024-03-06T16:40:36;18.83;;;13.00;;
47403;SDS011;33157;51.508;4.288;2024-03-06T16:45:36;19.15;;;13.65;;
47403;SDS011;33157;51.508;4.288;2024-03-06T16:50:37;15.32;;;12.50;;
47403;SDS011;33157;51.508;4.288;2024-03-06T16:55:38;17.75;;;12.52;;
47403;SDS011;33157;51.508;4.288;2024-03-06T17:00:38;16.77;;;10.95;;
47403;SDS011;33157;51.508;4.288;2024-03-06T17:05:40;16.38;;;12.38;;
47403;SDS011;33157;51.508;4.288;2024-03-06T17:10:41;18.35;;;12.38;;
47403;SDS011;33157;51.508;4.288;2024-03-06T17:15:42;19.63;;;12.70;;
47403;SDS011;33157;51.508;4.288;2024-03-06T17:20:42;19.77;;;14.02;;
47403;SDS011;33157;51.508;4.288;2024-03-06T17:25:43;21.42;;;13.15;;
47403;SDS011;33157;51.508;4.288;2024-03-06T17:30:44;17.10;;;13.50;;
47403;SDS011;33157;51.508;4.288;2024-03-06T17:40:47;18.17;;;13.35;;
47403;SDS011;33157;51.508;4.288;2024-03-06T17:45:47;17.05;;;13.20;;
47403;SDS011;33157;51.508;4.288;2024-03-06T17:50:48;20.60;;;14.05;;
47403;SDS011;33157;51.508;4.288;2024-03-06T17:55:48;18.98;;;13.98;;
47403;SDS011;33157;51.508;4.288;2024-03-06T18:00:49;18.42;;;14.20;;
47403;SDS011;33157;51.508;4.288;2024-03-06T18:05:49;20.40;;;14.38;;
47403;SDS011;33157;51.508;4.288;2024-03-06T18:10:51;21.60;;;16.30;;
47403;SDS011;33157;51.508;4.288;2024-03-06T18:15:51;23.15;;;16.65;;
47403;SDS011;33157;51.508;4.288;2024-03-06T18:20:52;26.02;;;16.10;;
47403;SDS011;33157;51.508;4.288;2024-03-06T18:25:53;21.95;;;16.40;;
47403;SDS011;33157;51.508;4.288;2024-03-06T18:30:54;23.13;;;17.40;;
47403;SDS011;33157;51.508;4.288;2024-03-06T18:35:55;26.00;;;18.40;;
47403;SDS011;33157;51.508;4.288;2024-03-06T18:40:56;25.20;;;17.95;;
47403;SDS011;33157;51.508;4.288;2024-03-06T18:45:57;26.70;;;17.88;;
47403;SDS011;33157;51.508;4.288;2024-03-06T18:50:57;28.20;;;18.00;;
47403;SDS011;33157;51.508;4.288;2024-03-06T18:55:58;29.02;;;19.73;;
47403;SDS011;33157;51.508;4.288;2024-03-06T19:00:58;33.80;;;23.55;;
47403;SDS011;33157;51.508;4.288;2024-03-06T19:05:59;41.28;;;25.38;;
47403;SDS011;33157;51.508;4.288;2024-03-06T19:10:59;36.03;;;25.33;;
47403;SDS011;33157;51.508;4.288;2024-03-06T19:16:00;34.97;;;23.58;;
47403;SDS011;33157;51.508;4.288;2024-03-06T19:21:00;32.47;;;22.73;;
47403;SDS011;33157;51.508;4.288;2024-03-06T19:26:01;29.35;;;20.02;;
47403;SDS011;33157;51.508;4.288;2024-03-06T19:31:02;28.80;;;20.85;;
47403;SDS011;33157;51.508;4.288;2024-03-06T19:36:03;33.03;;;22.08;;
47403;SDS011;33157;51.508;4.288;2024-03-06T19:41:03;26.55;;;19.83;;
47403;SDS011;33157;51.508;4.288;2024-03-06T19:46:04;26.55;;;18.88;;
47403;SDS011;33157;51.508;4.288;2024-03-06T19:51:05;28.73;;;20.07;;
47403;SDS011;33157;51.508;4.288;2024-03-06T20:01:10;27.05;;;19.85;;
47403;SDS011;33157;51.508;4.288;2024-03-06T20:06:11;31.88;;;20.77;;
47403;SDS011;33157;51.508;4.288;2024-03-06T20:11:11;32.28;;;22.33;;
47403;SDS011;33157;51.508;4.288;2024-03-06T20:16:12;31.05;;;21.77;;
47403;SDS011;33157;51.508;4.288;2024-03-06T20:21:12;37.05;;;22.90;;
47403;SDS011;33157;51.508;4.288;2024-03-06T20:26:13;32.25;;;23.65;;
47403;SDS011;33157;51.508;4.288;2024-03-06T20:31:13;34.53;;;22.73;;
47403;SDS011;33157;51.508;4.288;2024-03-06T20:36:16;32.33;;;22.30;;
47403;SDS011;33157;51.508;4.288;2024-03-06T20:41:17;35.38;;;23.55;;
47403;SDS011;33157;51.508;4.288;2024-03-06T20:46:19;33.43;;;23.20;;
47403;SDS011;33157;51.508;4.288;2024-03-06T20:51:20;35.20;;;23.40;;
47403;SDS011;33157;51.508;4.288;2024-03-06T20:56:20;35.22;;;22.92;;
47403;SDS011;33157;51.508;4.288;2024-03-06T21:01:21;37.75;;;23.00;;
47403;SDS011;33157;51.508;4.288;2024-03-06T21:06:21;33.30;;;21.92;;
47403;SDS011;33157;51.508;4.288;2024-03-06T21:11:23;39.10;;;23.20;;
47403;SDS011;33157;51.508;4.288;2024-03-06T21:16:24;32.72;;;22.70;;
47403;SDS011;33157;51.508;4.288;2024-03-06T21:21:24;30.20;;;21.33;;
47403;SDS011;33157;51.508;4.288;2024-03-06T21:26:25;30.55;;;22.17;;
47403;SDS011;33157;51.508;4.288;2024-03-06T21:31:25;34.60;;;23.38;;
47403;SDS011;33157;51.508;4.288;2024-03-06T21:36:26;32.60;;;22.52;;
47403;SDS011;33157;51.508;4.288;2024-03-06T21:41:26;35.15;;;23.48;;
47403;SDS011;33157;51.508;4.288;2024-03-06T21:46:27;31.75;;;22.63;;
47403;SDS011;33157;51.508;4.288;2024-03-06T21:51:27;31.88;;;22.83;;
47403;SDS011;33157;51.508;4.288;2024-03-06T21:56:29;35.25;;;23.20;;
47403;SDS011;33157;51.508;4.288;2024-03-06T22:01:30;38.60;;;23.02;;
47403;SDS011;33157;51.508;4.288;2024-03-06T22:06:30;34.92;;;23.25;;
47403;SDS011;33157;51.508;4.288;2024-03-06T22:11:31;35.92;;;24.70;;
47403;SDS011;33157;51.508;4.288;2024-03-06T22:16:32;38.17;;;26.15;;
47403;SDS011;33157;51.508;4.288;2024-03-06T22:21:32;41.17;;;25.20;;
47403;SDS011;33157;51.508;4.288;2024-03-06T22:26:33;35.47;;;24.50;;
47403;SDS011;33157;51.508;4.288;2024-03-06T22:31:33;36.95;;;24.25;;
47403;SDS011;33157;51.508;4.288;2024-03-06T22:36:34;40.05;;;25.40;;
47403;SDS011;33157;51.508;4.288;2024-03-06T22:41:34;40.47;;;24.95;;
47403;SDS011;33157;51.508;4.288;2024-03-06T22:46:35;42.08;;;26.00;;
47403;SDS011;33157;51.508;4.288;2024-03-06T22:51:36;42.22;;;25.63;;
47403;SDS011;33157;51.508;4.288;2024-03-06T22:56:36;43.95;;;26.83;;
47403;SDS011;33157;51.508;4.288;2024-03-06T23:01:37;44.20;;;27.67;;
47403;SDS011;33157;51.508;4.288;2024-03-06T23:06:38;41.53;;;26.63;;
47403;SDS011;33157;51.508;4.288;2024-03-06T23:11:39;43.03;;;26.92;;
47403;SDS011;33157;51.508;4.288;2024-03-06T23:16:40;42.25;;;24.77;;
47403;SDS011;33157;51.508;4.288;2024-03-06T23:21:41;43.50;;;26.30;;
47403;SDS011;33157;51.508;4.288;2024-03-06T23:26:43;43.60;;;26.70;;
47403;SDS011;33157;51.508;4.288;2024-03-06T23:31:44;45.55;;;27.95;;
47403;SDS011;33157;51.508;4.288;2024-03-06T23:36:44;48.25;;;28.35;;
47403;SDS011;33157;51.508;4.288;2024-03-06T23:41:45;49.58;;;28.15;;
47403;SDS011;33157;51.508;4.288;2024-03-06T23:46:45;51.90;;;29.58;;
47403;SDS011;33157;51.508;4.288;2024-03-06T23:51:46;54.35;;;30.52;;
47403;SDS011;33157;51.508;4.288;2024-03-06T23:56:46;51.38;;;29.35;;
